Time;durP1;ratioP1;P1;durP2;ratioP2;P2;SDS_P1;SDS_P2;PMS_P1;PMS_P2;Temp;Humidity;BMP_temperature;BMP_pressure;BME280_temperature;BME280_humidity;BME280_pressure;Samples;Min_cycle;Max_cycle;Signal;HPM_P1;HPM_P2
2022/06/30 00:01:22;;;;;;;5.30;2.60;;;20.50;90.60;;;;;;5033218;28;20025;-75
2022/06/30 00:03:48;;;;;;;4.45;2.22;;;20.50;90.60;;;;;;5033416;28;20026;-76
2022/06/30 00:06:13;;;;;;;4.55;2.35;;;20.60;90.60;;;;;;5015831;28;20502;-77
2022/06/30 00:08:39;;;;;;;4.93;2.70;;;20.60;90.50;;;;;;5015726;28;20026;-76
2022/06/30 00:11:07;;;;;;;5.47;2.70;;;20.60;90.40;;;;;;5033302;28;20037;-76
2022/06/30 00:13:34;;;;;;;5.70;3.20;;;20.60;90.40;;;;;;5015299;28;20079;-77
2022/06/30 00:16:00;;;;;;;5.00;2.47;;;20.70;90.50;;;;;;5015666;28;20497;-76
2022/06/30 00:18:26;;;;;;;4.05;2.30;;;20.60;90.40;;;;;;5033097;28;20119;-77
2022/06/30 00:20:51;;;;;;;5.65;2.70;;;20.60;90.30;;;;;;5033171;28;20022;-77
2022/06/30 00:23:17;;;;;;;4.90;2.50;;;20.60;90.40;;;;;;5032851;28;20152;-76
2022/06/30 00:25:42;;;;;;;5.07;2.55;;;20.50;90.40;;;;;;5025374;28;20492;-76
2022/06/30 00:28:08;;;;;;;5.47;3.10;;;20.60;90.40;;;;;;5013393;28;20030;-76
2022/06/30 00:30:33;;;;;;;4.97;2.45;;;20.60;90.40;;;;;;4995824;28;20444;-76
2022/06/30 00:32:59;;;;;;;4.97;2.40;;;20.50;90.50;;;;;;5001547;28;20118;-77
2022/06/30 00:35:24;;;;;;;4.38;2.58;;;20.50;90.50;;;;;;5013180;28;20387;-76
2022/06/30 00:37:50;;;;;;;4.55;2.65;;;20.50;90.60;;;;;;5012884;28;20061;-77
2022/06/30 00:40:15;;;;;;;5.15;2.80;;;20.50;90.60;;;;;;5012704;28;20018;-76
2022/06/30 00:42:41;;;;;;;4.03;2.30;;;20.50;90.60;;;;;;4995005;28;20022;-76
2022/06/30 00:45:07;;;;;;;3.78;2.20;;;20.50;90.60;;;;;;4995441;28;20476;-77
2022/06/30 00:47:33;;;;;;;4.32;2.50;;;20.50;90.60;;;;;;4995525;28;20052;-78
2022/06/30 00:49:58;;;;;;;4.38;2.30;;;20.50;90.60;;;;;;4995637;28;20049;-78
2022/06/30 00:52:25;;;;;;;4.30;2.20;;;20.50;90.60;;;;;;4995258;28;20032;-77
2022/06/30 00:54:54;;;;;;;6.57;2.67;;;20.50;90.50;;;;;;4995250;28;20401;-77
2022/06/30 00:57:22;;;;;;;3.78;2.17;;;20.50;90.60;;;;;;5012975;28;20039;-77
2022/06/30 00:59:48;;;;;;;6.40;2.75;;;20.60;90.50;;;;;;5012943;28;20021;-78
2022/06/30 01:02:15;;;;;;;4.63;2.55;;;20.50;90.40;;;;;;5012563;28;20058;-77
2022/06/30 01:04:41;;;;;;;4.80;2.67;;;20.60;90.40;;;;;;5012858;28;20103;-76
2022/06/30 01:07:09;;;;;;;4.13;2.40;;;20.60;90.40;;;;;;4995182;28;20488;-77
2022/06/30 01:15:02;;;;;;;4.47;2.35;;;20.60;90.40;;;;;;5012779;28;20120;-77
2022/06/30 01:17:29;;;;;;;5.05;2.30;;;20.60;90.40;;;;;;5005566;28;20120;-75
2022/06/30 01:19:56;;;;;;;4.28;2.33;;;20.50;90.40;;;;;;5014638;28;20060;-77
2022/06/30 01:22:22;;;;;;;4.32;2.50;;;20.50;90.40;;;;;;5014354;28;20472;-77
2022/06/30 01:24:48;;;;;;;4.20;2.40;;;20.50;90.50;;;;;;5014808;28;20025;-76
2022/06/30 01:27:13;;;;;;;4.65;2.30;;;20.60;90.50;;;;;;5032372;28;20518;-77
2022/06/30 01:29:39;;;;;;;4.85;2.58;;;20.50;90.60;;;;;;5032590;28;20558;-77
2022/06/30 01:32:05;;;;;;;4.38;2.35;;;20.50;90.60;;;;;;5014290;28;20033;-77
2022/06/30 01:34:30;;;;;;;4.43;2.40;;;20.50;90.60;;;;;;5014531;28;20036;-76
2022/06/30 01:36:56;;;;;;;4.10;2.35;;;20.50;90.60;;;;;;5013849;28;20018;-77
2022/06/30 01:39:22;;;;;;;4.80;2.50;;;20.50;90.60;;;;;;5014479;28;20068;-77
2022/06/30 01:41:47;;;;;;;4.03;2.30;;;20.50;90.60;;;;;;5031898;28;20049;-76
2022/06/30 01:44:13;;;;;;;4.55;2.42;;;20.50;90.60;;;;;;5032163;28;20431;-77
2022/06/30 01:46:49;;;;;;;4.93;2.53;;;20.50;90.50;;;;;;5032077;28;20034;-77
2022/06/30 01:49:14;;;;;;;4.63;2.28;;;20.50;90.50;;;;;;5031986;28;20030;-76
2022/06/30 01:51:40;;;;;;;3.95;2.22;;;20.50;90.40;;;;;;5017813;28;20107;-76
2022/06/30 01:54:08;;;;;;;3.97;2.22;;;20.60;90.40;;;;;;5018027;28;20025;-77
2022/06/30 01:56:34;;;;;;;4.32;2.38;;;20.60;90.40;;;;;;5018266;28;20025;-76
2022/06/30 01:58:59;;;;;;;5.80;2.30;;;20.60;90.40;;;;;;5036165;28;20021;-77
2022/06/30 02:01:25;;;;;;;4.65;2.25;;;20.60;90.30;;;;;;5035426;28;20029;-76
2022/06/30 02:03:50;;;;;;;3.70;2.28;;;20.60;90.30;;;;;;5035746;28;20037;-76
2022/06/30 02:06:16;;;;;;;3.42;2.20;;;20.50;90.30;;;;;;5035825;28;20599;-76
2022/06/30 02:08:42;;;;;;;4.13;2.40;;;20.50;90.30;;;;;;5035631;28;20094;-77
2022/06/30 02:11:07;;;;;;;4.07;2.35;;;20.50;90.50;;;;;;5035564;28;20034;-77
2022/06/30 02:13:33;;;;;;;5.70;2.80;;;20.50;90.50;;;;;;5017686;28;20042;-76
2022/06/30 02:15:58;;;;;;;4.20;2.40;;;20.50;90.50;;;;;;5035508;28;20028;-76
2022/06/30 02:18:24;;;;;;;3.53;2.47;;;20.50;90.50;;;;;;5017940;28;20053;-76
2022/06/30 02:20:49;;;;;;;4.45;2.47;;;20.50;90.60;;;;;;5035374;28;20014;-76
2022/06/30 02:23:15;;;;;;;4.10;2.35;;;20.50;90.60;;;;;;5017471;28;20060;-77
2022/06/30 02:25:40;;;;;;;3.90;2.15;;;20.40;90.60;;;;;;5035413;28;20072;-77
2022/06/30 02:28:06;;;;;;;4.53;2.42;;;20.40;90.60;;;;;;5035288;28;20037;-77
2022/06/30 02:30:33;;;;;;;3.47;2.28;;;20.40;90.60;;;;;;5017638;28;20374;-77
2022/06/30 02:32:58;;;;;;;3.85;2.50;;;20.50;90.60;;;;;;5017057;28;20021;-76
2022/06/30 02:35:24;;;;;;;4.30;2.40;;;20.50;90.60;;;;;;5035423;28;20041;-76
2022/06/30 02:37:49;;;;;;;4.25;2.40;;;20.40;90.50;;;;;;5032495;28;20463;-76
2022/06/30 02:40:15;;;;;;;4.18;2.47;;;20.50;90.50;;;;;;5026298;28;20044;-76
2022/06/30 02:42:41;;;;;;;4.40;2.42;;;20.50;90.40;;;;;;5048490;28;20025;-78
2022/06/30 02:45:07;;;;;;;4.78;2.50;;;20.50;90.40;;;;;;5037091;28;20059;-77
2022/06/30 02:47:38;;;;;;;4.22;2.20;;;20.50;90.30;;;;;;5037064;28;20021;-78
2022/06/30 02:50:05;;;;;;;3.78;2.28;;;20.50;90.30;;;;;;5037157;28;20021;-77
2022/06/30 02:52:32;;;;;;;4.00;2.28;;;20.60;90.30;;;;;;5042755;28;20041;-78
2022/06/30 02:54:58;;;;;;;4.15;2.30;;;20.50;90.50;;;;;;5008232;28;20041;-77
2022/06/30 02:57:24;;;;;;;4.40;2.22;;;20.50;90.30;;;;;;4997526;28;20057;-76
2022/06/30 02:59:50;;;;;;;3.85;2.10;;;20.50;90.30;;;;;;5014974;28;20123;-78
2022/06/30 03:02:16;;;;;;;3.85;2.40;;;20.50;90.40;;;;;;4996462;28;20113;-77
2022/06/30 03:04:41;;;;;;;4.07;2.30;;;20.50;90.40;;;;;;5014885;28;20049;-77
2022/06/30 03:07:07;;;;;;;3.58;2.30;;;20.50;90.50;;;;;;5027926;28;20109;-76
2022/06/30 03:09:33;;;;;;;3.55;2.10;;;20.40;90.50;;;;;;5033946;28;20029;-76
2022/06/30 03:11:59;;;;;;;3.97;2.42;;;20.40;90.50;;;;;;5033461;28;20099;-76
2022/06/30 03:14:24;;;;;;;3.13;2.25;;;20.40;90.60;;;;;;5015578;28;20030;-77
2022/06/30 03:16:50;;;;;;;4.03;2.20;;;20.40;90.60;;;;;;5016225;28;20018;-76
2022/06/30 03:19:15;;;;;;;3.88;2.25;;;20.40;90.60;;;;;;4999786;28;20022;-76
2022/06/30 03:21:41;;;;;;;3.63;2.30;;;20.40;90.60;;;;;;4998329;28;20018;-76
2022/06/30 03:24:07;;;;;;;3.80;2.28;;;20.40;90.50;;;;;;5014094;28;20034;-76
2022/06/30 03:26:32;;;;;;;3.78;2.10;;;20.40;90.60;;;;;;5028499;28;20148;-76
2022/06/30 03:28:58;;;;;;;3.80;2.40;;;20.40;90.50;;;;;;5019579;28;20029;-76
2022/06/30 03:31:23;;;;;;;4.20;2.20;;;20.40;90.50;;;;;;5029394;28;20037;-76
2022/06/30 03:33:49;;;;;;;4.03;2.20;;;20.40;90.40;;;;;;4996370;28;20467;-76
2022/06/30 03:36:15;;;;;;;3.30;2.30;;;20.50;90.40;;;;;;5007564;28;20026;-76
2022/06/30 03:38:40;;;;;;;3.97;2.28;;;20.50;90.30;;;;;;5019445;28;20543;-76
2022/06/30 03:41:06;;;;;;;5.07;2.35;;;20.50;90.30;;;;;;5033660;28;20025;-76
2022/06/30 03:43:31;;;;;;;4.35;2.30;;;20.50;90.30;;;;;;5033157;28;20104;-77
2022/06/30 03:45:57;;;;;;;3.80;2.22;;;20.50;90.30;;;;;;5031603;28;20029;-76
2022/06/30 03:48:22;;;;;;;4.28;2.38;;;20.50;90.30;;;;;;5028959;28;20033;-76
2022/06/30 03:50:48;;;;;;;3.08;2.25;;;20.50;90.30;;;;;;5009526;28;20033;-76
2022/06/30 03:53:13;;;;;;;3.35;2.15;;;20.50;90.40;;;;;;5004286;28;20033;-76
2022/06/30 03:55:39;;;;;;;3.58;2.10;;;20.50;90.40;;;;;;5008635;28;20021;-76
2022/06/30 03:58:06;;;;;;;2.97;2.00;;;20.40;90.40;;;;;;5007431;28;20403;-76
2022/06/30 04:00:32;;;;;;;3.45;2.28;;;20.40;90.50;;;;;;5015036;28;20037;-76
2022/06/30 04:02:57;;;;;;;3.65;2.35;;;20.40;90.50;;;;;;5014785;28;20037;-76
2022/06/30 04:05:23;;;;;;;3.88;2.30;;;20.40;90.50;;;;;;5014750;28;20064;-77
2022/06/30 04:07:48;;;;;;;3.83;2.30;;;20.40;90.60;;;;;;5032734;28;20567;-76
2022/06/30 04:10:14;;;;;;;4.82;2.20;;;20.40;90.50;;;;;;5032692;28;20029;-77
2022/06/30 04:12:40;;;;;;;4.45;2.30;;;20.40;90.50;;;;;;5032060;28;20033;-78
2022/06/30 04:15:07;;;;;;;4.05;2.50;;;20.40;90.50;;;;;;5013681;28;20104;-76
2022/06/30 04:17:35;;;;;;;3.25;2.25;;;20.40;90.50;;;;;;5013579;28;20037;-75
2022/06/30 04:20:06;;;;;;;2.65;2.00;;;20.40;90.70;;;;;;5028722;28;20049;-75
2022/06/30 04:22:32;;;;;;;3.63;2.00;;;20.40;90.40;;;;;;5032994;28;20124;-75
2022/06/30 04:24:58;;;;;;;3.60;2.25;;;20.50;90.40;;;;;;5033067;28;20112;-75
2022/06/30 04:27:23;;;;;;;3.35;2.20;;;20.50;90.40;;;;;;5015502;28;20026;-75
2022/06/30 04:29:49;;;;;;;3.97;2.30;;;20.50;90.30;;;;;;5033989;28;20029;-75
2022/06/30 04:34:59;;;;;;;3.85;2.50;;;20.50;90.30;;;;;;5033465;28;20040;-75
2022/06/30 04:37:24;;;;;;;3.25;2.10;;;20.50;90.30;;;;;;5034627;28;20025;-75
2022/06/30 04:41:23;;;;;;;2.95;2.10;;;20.50;90.30;;;;;;5026805;28;20025;-75
2022/06/30 04:42:36;;;;;;;3.58;2.28;;;20.50;90.30;;;;;;5043719;28;20025;-75
2022/06/30 04:45:01;;;;;;;3.95;2.42;;;20.50;90.40;;;;;;5015404;28;20059;-74
2022/06/30 04:47:30;;;;;;;3.65;2.28;;;20.40;90.50;;;;;;5033205;28;20034;-75
2022/06/30 04:49:55;;;;;;;3.08;2.20;;;20.40;90.50;;;;;;5013995;28;20033;-77
2022/06/30 04:52:21;;;;;;;3.85;2.25;;;20.40;90.50;;;;;;5013282;28;20028;-75
2022/06/30 04:54:46;;;;;;;3.50;2.30;;;20.40;90.60;;;;;;5025370;28;20325;-76
2022/06/30 04:57:11;;;;;;;3.78;2.35;;;20.40;90.60;;;;;;5026680;28;20024;-75
2022/06/30 04:59:37;;;;;;;3.67;2.25;;;20.40;90.60;;;;;;5009423;28;20145;-76
2022/06/30 05:02:03;;;;;;;4.25;2.35;;;20.40;90.60;;;;;;4997227;28;20026;-76
2022/06/30 05:04:28;;;;;;;3.60;2.38;;;20.40;90.60;;;;;;5005135;28;20535;-76
2022/06/30 05:06:54;;;;;;;3.30;2.20;;;20.40;90.50;;;;;;5007733;28;20037;-76
2022/06/30 05:09:19;;;;;;;3.20;2.10;;;20.40;90.50;;;;;;5017822;28;20037;-76
2022/06/30 05:11:45;;;;;;;4.50;2.40;;;20.40;90.40;;;;;;5005782;28;20459;-76
2022/06/30 05:14:10;;;;;;;3.53;2.30;;;20.50;90.40;;;;;;5005543;28;20026;-75
2022/06/30 05:16:35;;;;;;;2.90;2.17;;;20.50;90.30;;;;;;5022741;28;20968;-75
2022/06/30 05:19:01;;;;;;;4.20;2.38;;;20.50;90.30;;;;;;5007702;28;20021;-77
2022/06/30 05:21:26;;;;;;;3.85;2.28;;;20.50;90.20;;;;;;5014833;28;20034;-76
2022/06/30 05:26:36;;;;;;;2.72;2.03;;;20.50;90.20;;;;;;5024330;28;20091;-77
2022/06/30 05:29:02;;;;;;;4.07;2.50;;;20.50;90.20;;;;;;5000270;28;20026;-75
2022/06/30 05:31:27;;;;;;;3.92;2.20;;;20.50;90.20;;;;;;5026625;28;20061;-75
2022/06/30 05:33:53;;;;;;;3.22;2.22;;;20.50;90.30;;;;;;5008113;28;20029;-76
2022/06/30 05:36:18;;;;;;;5.32;2.30;;;20.50;90.40;;;;;;5006788;28;20060;-76
2022/06/30 05:38:44;;;;;;;3.42;2.05;;;20.40;90.40;;;;;;5025295;28;20029;-76
2022/06/30 05:41:09;;;;;;;3.03;2.00;;;20.40;90.40;;;;;;5007341;28;20025;-76
2022/06/30 05:43:35;;;;;;;3.40;2.15;;;20.40;90.40;;;;;;5007299;28;20330;-76
2022/06/30 05:46:00;;;;;;;3.33;2.30;;;20.40;90.50;;;;;;5008184;28;20037;-75
2022/06/30 05:48:26;;;;;;;3.75;2.40;;;20.40;90.40;;;;;;5007822;28;20120;-76
2022/06/30 05:50:51;;;;;;;3.92;2.50;;;20.40;90.50;;;;;;5006694;28;20068;-76
2022/06/30 05:53:17;;;;;;;3.10;2.05;;;20.40;90.40;;;;;;5022830;28;20021;-77
2022/06/30 05:55:43;;;;;;;4.32;2.20;;;20.40;90.50;;;;;;5024124;28;20086;-76
2022/06/30 05:58:11;;;;;;;4.00;2.30;;;20.40;90.50;;;;;;5024818;28;20029;-77
2022/06/30 06:00:36;;;;;;;4.00;2.38;;;20.40;90.50;;;;;;5024262;28;20025;-77
2022/06/30 06:03:02;;;;;;;3.63;2.15;;;20.40;90.40;;;;;;5006851;28;20646;-76
2022/06/30 06:05:28;;;;;;;3.15;2.08;;;20.50;90.40;;;;;;5025715;28;20076;-76
2022/06/30 06:07:53;;;;;;;4.18;2.33;;;20.50;90.30;;;;;;5025702;28;20036;-77
2022/06/30 06:10:19;;;;;;;3.13;2.05;;;20.50;90.20;;;;;;5025281;28;20143;-77
2022/06/30 06:12:45;;;;;;;4.57;2.40;;;20.60;90.10;;;;;;5025113;28;20407;-77
2022/06/30 06:15:12;;;;;;;3.40;2.13;;;20.60;90.00;;;;;;5025580;28;20025;-76
2022/06/30 06:17:42;;;;;;;3.50;2.33;;;20.60;90.00;;;;;;5025235;28;20124;-77
2022/06/30 06:20:09;;;;;;;3.45;2.22;;;20.60;90.00;;;;;;5008099;28;20384;-77
2022/06/30 06:22:35;;;;;;;3.38;2.08;;;20.60;90.00;;;;;;5024700;28;20042;-77
2022/06/30 06:25:00;;;;;;;2.50;1.85;;;20.60;89.80;;;;;;5025407;28;20506;-77
2022/06/30 06:27:26;;;;;;;3.63;2.25;;;20.60;89.90;;;;;;5025213;28;20079;-76
2022/06/30 06:29:51;;;;;;;3.22;2.20;;;20.60;90.00;;;;;;5002989;28;20519;-77
2022/06/30 06:32:17;;;;;;;3.53;2.30;;;20.60;90.00;;;;;;5006960;28;20090;-75
2022/06/30 06:34:42;;;;;;;4.57;2.40;;;20.60;90.00;;;;;;5025273;28;20034;-76
2022/06/30 06:37:08;;;;;;;3.35;2.08;;;20.60;90.00;;;;;;5026131;28;20103;-75
2022/06/30 06:39:33;;;;;;;2.85;2.08;;;20.60;90.00;;;;;;5028094;28;20125;-76
2022/06/30 06:41:59;;;;;;;3.05;2.13;;;20.60;90.00;;;;;;5028458;28;20071;-76
2022/06/30 06:44:25;;;;;;;3.08;2.13;;;20.60;90.00;;;;;;5028652;28;20067;-76
2022/06/30 06:46:50;;;;;;;3.88;2.42;;;20.60;89.90;;;;;;5028490;28;20029;-76
2022/06/30 06:49:16;;;;;;;3.28;2.05;;;20.60;89.80;;;;;;5028618;28;20033;-76
2022/06/30 06:51:41;;;;;;;3.97;2.28;;;20.60;89.70;;;;;;5010276;28;20057;-75
2022/06/30 06:54:07;;;;;;;3.67;2.50;;;20.60;89.70;;;;;;5027976;28;20021;-76
2022/06/30 06:56:32;;;;;;;3.88;2.50;;;20.60;89.80;;;;;;5028626;28;20052;-76
2022/06/30 06:58:59;;;;;;;3.20;2.03;;;20.60;89.80;;;;;;5010567;28;20060;-76
2022/06/30 07:01:25;;;;;;;3.70;2.42;;;20.70;89.70;;;;;;5010577;28;20444;-76
2022/06/30 07:03:50;;;;;;;3.60;2.25;;;20.70;89.50;;;;;;5010170;28;20120;-76
2022/06/30 07:06:16;;;;;;;3.75;2.40;;;20.70;89.30;;;;;;5035132;28;20031;-76
2022/06/30 07:08:42;;;;;;;3.88;2.17;;;20.80;89.10;;;;;;5015658;28;20087;-75
2022/06/30 07:11:07;;;;;;;3.45;2.20;;;20.80;88.90;;;;;;5015333;28;20041;-77
2022/06/30 07:13:35;;;;;;;4.20;2.70;;;20.80;88.90;;;;;;5027426;28;20033;-75
2022/06/30 07:16:01;;;;;;;3.83;2.33;;;20.80;89.00;;;;;;5010129;28;20504;-76
2022/06/30 07:18:27;;;;;;;3.60;2.35;;;20.80;88.90;;;;;;5012409;28;20033;-76
2022/06/30 07:20:53;;;;;;;3.58;1.92;;;20.70;88.90;;;;;;4990870;28;20026;-77
2022/06/30 07:23:19;;;;;;;3.80;2.40;;;20.80;89.00;;;;;;4989894;28;20113;-76
2022/06/30 07:25:44;;;;;;;3.47;2.10;;;20.80;88.90;;;;;;4990798;28;20041;-76
2022/06/30 07:28:10;;;;;;;4.32;2.70;;;20.80;88.90;;;;;;5007709;28;20481;-75
2022/06/30 07:30:35;;;;;;;3.67;2.22;;;20.80;88.90;;;;;;5005150;28;20026;-77
2022/06/30 07:33:01;;;;;;;3.05;2.33;;;20.80;88.80;;;;;;5009486;28;20745;-76
2022/06/30 07:35:27;;;;;;;3.35;2.35;;;20.80;88.90;;;;;;5027967;28;20085;-77
2022/06/30 07:37:52;;;;;;;3.35;2.22;;;20.80;88.90;;;;;;5027451;28;20467;-76
2022/06/30 07:40:18;;;;;;;3.75;2.40;;;20.80;88.80;;;;;;5027513;28;20017;-76
2022/06/30 07:42:43;;;;;;;3.47;2.50;;;20.80;88.80;;;;;;5027257;28;20029;-76
2022/06/30 07:45:10;;;;;;;4.85;2.88;;;20.80;88.80;;;;;;5009642;28;20082;-76
2022/06/30 07:47:39;;;;;;;4.28;2.60;;;20.90;88.90;;;;;;5009521;28;20021;-76
2022/06/30 07:50:05;;;;;;;4.63;2.60;;;20.90;88.80;;;;;;5027498;28;20499;-77
2022/06/30 07:52:33;;;;;;;3.95;2.50;;;20.90;88.60;;;;;;5026839;28;20409;-76
2022/06/30 07:54:59;;;;;;;4.05;2.55;;;21.00;88.50;;;;;;5026955;28;20082;-77
2022/06/30 07:57:26;;;;;;;4.05;2.70;;;21.00;88.20;;;;;;5025392;28;20076;-76
2022/06/30 07:59:52;;;;;;;4.22;2.70;;;21.10;88.00;;;;;;5011569;28;20036;-76
2022/06/30 08:02:17;;;;;;;3.83;2.60;;;21.10;87.90;;;;;;5028703;28;20033;-77
2022/06/30 08:04:43;;;;;;;3.88;2.72;;;21.10;87.90;;;;;;5029392;28;20655;-76
2022/06/30 08:07:08;;;;;;;4.80;3.13;;;21.10;87.90;;;;;;5029155;28;20029;-76
2022/06/30 08:09:34;;;;;;;4.18;2.75;;;21.10;87.90;;;;;;5029379;28;20036;-77
2022/06/30 08:12:00;;;;;;;4.13;2.70;;;21.10;88.00;;;;;;5028367;28;20380;-77
2022/06/30 08:14:26;;;;;;;4.40;2.80;;;21.00;87.90;;;;;;5037542;28;20468;-76
2022/06/30 08:16:52;;;;;;;5.13;2.92;;;21.10;87.90;;;;;;5026645;28;20045;-76
2022/06/30 08:19:21;;;;;;;4.75;3.03;;;21.10;87.90;;;;;;5026630;28;20032;-76
2022/06/30 08:21:47;;;;;;;4.32;2.60;;;21.10;87.80;;;;;;5026337;28;20106;-76
2022/06/30 08:24:13;;;;;;;4.88;2.90;;;21.10;87.80;;;;;;5008916;28;20343;-76
2022/06/30 08:26:38;;;;;;;4.95;3.13;;;21.10;87.80;;;;;;5003834;28;20052;-77
2022/06/30 08:29:04;;;;;;;4.13;2.80;;;21.10;87.80;;;;;;5008453;28;20065;-76
2022/06/30 08:31:29;;;;;;;4.53;2.83;;;21.10;87.80;;;;;;5025323;28;20553;-76
2022/06/30 08:33:55;;;;;;;4.32;2.85;;;21.10;87.70;;;;;;5002020;28;20038;-76
2022/06/30 08:36:22;;;;;;;4.72;2.85;;;21.10;87.90;;;;;;5006720;28;20026;-76
2022/06/30 08:38:48;;;;;;;4.63;3.10;;;21.20;87.80;;;;;;5008342;28;20025;-76
2022/06/30 08:43:59;;;;;;;4.88;3.20;;;21.20;87.60;;;;;;5017820;28;20045;-76
2022/06/30 08:46:27;;;;;;;5.38;3.33;;;21.20;87.40;;;;;;5022900;28;20041;-76
2022/06/30 08:48:53;;;;;;;4.30;2.78;;;21.30;87.30;;;;;;5004012;28;20041;-75
2022/06/30 08:51:20;;;;;;;4.50;2.90;;;21.30;87.00;;;;;;5015531;28;20026;-75
2022/06/30 08:53:52;;;;;;;4.75;3.10;;;21.30;86.90;;;;;;5010479;28;20041;-76
2022/06/30 08:56:19;;;;;;;4.72;3.10;;;21.30;86.90;;;;;;5024662;28;20033;-76
2022/06/30 08:58:45;;;;;;;4.57;2.90;;;21.30;86.90;;;;;;5025444;28;20025;-76
2022/06/30 09:01:11;;;;;;;4.63;2.90;;;21.30;86.90;;;;;;5025677;28;20382;-75
2022/06/30 09:03:38;;;;;;;4.55;3.05;;;21.30;86.90;;;;;;5025501;28;20104;-76
2022/06/30 09:06:04;;;;;;;5.07;3.10;;;21.30;86.90;;;;;;5007024;28;20025;-77
2022/06/30 09:08:30;;;;;;;4.68;2.90;;;21.30;87.00;;;;;;5007583;28;20029;-75
2022/06/30 09:10:56;;;;;;;4.65;3.00;;;21.30;87.00;;;;;;5025694;28;20409;-76
2022/06/30 09:13:23;;;;;;;4.53;2.88;;;21.30;87.00;;;;;;5007593;28;20124;-76
2022/06/30 09:15:49;;;;;;;5.05;3.25;;;21.30;87.00;;;;;;5006838;28;20120;-76
2022/06/30 09:18:26;;;;;;;4.53;2.78;;;21.30;87.10;;;;;;5025589;28;20140;-75
2022/06/30 09:20:54;;;;;;;4.20;2.90;;;21.40;87.20;;;;;;5007885;28;20492;-76
2022/06/30 09:23:28;;;;;;;4.50;2.92;;;21.30;87.10;;;;;;5006550;28;20400;-76
2022/06/30 09:26:02;;;;;;;4.82;3.05;;;21.40;87.10;;;;;;5024659;28;20098;-77
2022/06/30 09:28:50;;;;;;;4.07;2.83;;;21.40;87.10;;;;;;5007740;28;20060;-76
2022/06/30 09:31:38;;;;;;;4.30;2.95;;;21.40;87.00;;;;;;5024435;28;20713;-76
2022/06/30 09:34:22;;;;;;;5.32;3.30;;;21.50;86.90;;;;;;5008103;28;20033;-77
2022/06/30 09:36:49;;;;;;;5.10;3.00;;;21.50;86.80;;;;;;5025518;28;20056;-77
2022/06/30 09:39:16;;;;;;;6.35;3.10;;;21.50;86.70;;;;;;5008042;28;20102;-76
2022/06/30 09:41:43;;;;;;;7.72;3.35;;;21.50;86.70;;;;;;5004785;28;20393;-77
2022/06/30 09:44:28;;;;;;;7.32;3.40;;;21.50;86.10;;;;;;5007859;28;20029;-75
2022/06/30 09:47:03;;;;;;;11.52;3.80;;;21.60;86.10;;;;;;5017965;28;20049;-77
2022/06/30 09:49:36;;;;;;;4.60;2.90;;;21.60;86.20;;;;;;5012599;28;20057;-77
2022/06/30 09:52:14;;;;;;;6.75;3.25;;;21.60;86.10;;;;;;5007494;28;20025;-77
2022/06/30 09:54:55;;;;;;;6.32;3.47;;;21.60;86.30;;;;;;5025639;28;20679;-76
2022/06/30 09:57:23;;;;;;;7.25;3.35;;;21.60;86.50;;;;;;5000928;28;20030;-77
2022/06/30 10:00:08;;;;;;;5.78;3.08;;;21.60;86.70;;;;;;4988312;28;20026;-76
2022/06/30 10:02:36;;;;;;;5.53;3.10;;;21.70;86.90;;;;;;5013540;28;20049;-77
2022/06/30 10:05:04;;;;;;;6.20;3.28;;;21.70;87.00;;;;;;5025057;28;20037;-76
2022/06/30 10:07:34;;;;;;;7.15;3.40;;;21.70;88.50;;;;;;5007904;28;20025;-77
2022/06/30 10:10:01;;;;;;;7.57;3.30;;;21.90;90.00;;;;;;5007989;28;20033;-77
2022/06/30 10:12:27;;;;;;;7.38;3.17;;;22.00;88.70;;;;;;5011576;28;20108;-77
2022/06/30 10:14:53;;;;;;;7.03;3.20;;;22.10;88.80;;;;;;5008278;28;20181;-76
2022/06/30 10:17:25;;;;;;;7.20;3.20;;;22.20;88.80;;;;;;5014230;28;20026;-76
2022/06/30 10:19:51;;;;;;;;;;;22.30;88.10;;;;;;5005529;28;20025;-77
2022/06/30 10:22:19;;;;;;;8.02;3.60;;;22.40;88.40;;;;;;5042234;28;19913;-77
2022/06/30 10:24:46;;;;;;;10.02;4.20;;;22.50;88.00;;;;;;5013746;28;20033;-78
2022/06/30 10:27:12;;;;;;;9.77;3.88;;;22.60;87.50;;;;;;5028648;28;20065;-75
2022/06/30 10:29:53;;;;;;;7.93;3.22;;;22.70;87.30;;;;;;5011074;28;20030;-77
2022/06/30 10:32:45;;;;;;;7.57;3.33;;;22.80;87.00;;;;;;5017404;28;20489;-77
2022/06/30 10:35:29;;;;;;;10.32;3.42;;;22.80;86.60;;;;;;5016081;28;20076;-76
2022/06/30 10:38:03;;;;;;;9.73;3.72;;;22.90;86.40;;;;;;5027793;28;20025;-76
2022/06/30 10:40:47;;;;;;;10.13;3.78;;;23.00;86.10;;;;;;5011439;28;20045;-77
2022/06/30 10:43:16;;;;;;;9.48;4.00;;;23.00;86.00;;;;;;5007223;28;20082;-76
2022/06/30 10:46:04;;;;;;;9.68;3.40;;;23.00;85.80;;;;;;5030949;28;20036;-75
2022/06/30 10:48:50;;;;;;;7.85;3.47;;;23.00;85.60;;;;;;5010626;28;20021;-76
2022/06/30 10:51:16;;;;;;;9.35;3.95;;;23.10;85.50;;;;;;5018831;28;20060;-77
2022/06/30 10:53:41;;;;;;;8.88;3.83;;;23.10;85.20;;;;;;5020824;28;20061;-77
2022/06/30 10:56:07;;;;;;;9.05;3.50;;;23.20;85.10;;;;;;5018270;28;20037;-76
2022/06/30 10:58:32;;;;;;;10.98;4.10;;;23.10;85.00;;;;;;5009885;28;20025;-76
2022/06/30 11:01:05;;;;;;;7.97;3.50;;;23.00;85.60;;;;;;5028012;28;20421;-76
2022/06/30 11:03:34;;;;;;;9.85;3.95;;;22.90;86.80;;;;;;5027778;28;20574;-76
2022/06/30 11:06:11;;;;;;;9.85;4.05;;;22.80;86.80;;;;;;5027815;28;20068;-77
2022/06/30 11:08:39;;;;;;;8.60;3.90;;;22.70;87.20;;;;;;5000711;28;20061;-77
2022/06/30 11:11:23;;;;;;;8.57;3.65;;;22.70;87.50;;;;;;5028704;28;20035;-77
2022/06/30 11:14:01;;;;;;;10.45;3.85;;;22.70;87.40;;;;;;5028042;28;20095;-75
2022/06/30 11:16:28;;;;;;;8.75;3.63;;;22.70;87.40;;;;;;5010710;28;20484;-77
2022/06/30 11:18:53;;;;;;;9.88;4.00;;;22.70;87.50;;;;;;5028306;28;20034;-76
2022/06/30 11:21:19;;;;;;;10.05;4.00;;;22.60;87.40;;;;;;5028574;28;20083;-76
2022/06/30 11:23:46;;;;;;;9.55;4.00;;;22.60;87.70;;;;;;5015745;28;20038;-77
2022/06/30 11:29:04;;;;;;;9.20;3.80;;;22.50;88.30;;;;;;5028818;28;20849;-77
2022/06/30 11:31:35;;;;;;;9.10;3.33;;;22.50;88.40;;;;;;5028298;28;20041;-77
2022/06/30 11:34:02;;;;;;;9.10;4.20;;;22.40;88.50;;;;;;5010655;28;20029;-77
2022/06/30 11:36:28;;;;;;;9.50;4.05;;;22.40;88.50;;;;;;5028764;28;20014;-76
2022/06/30 11:38:56;;;;;;;7.80;3.50;;;22.40;88.60;;;;;;5010736;28;20032;-77
2022/06/30 11:44:10;;;;;;;9.07;3.72;;;22.30;88.60;;;;;;5008901;28;20044;-77
2022/06/30 11:47:00;;;;;;;11.60;4.22;;;22.30;88.70;;;;;;5008493;28;20033;-78
2022/06/30 11:49:40;;;;;;;9.20;3.60;;;22.30;88.70;;;;;;4991330;28;20029;-77
2022/06/30 11:52:22;;;;;;;8.90;3.97;;;22.30;88.80;;;;;;5008325;28;20072;-77
2022/06/30 11:54:49;;;;;;;7.10;3.60;;;22.30;88.80;;;;;;5008302;28;20087;-77
2022/06/30 11:57:16;;;;;;;9.75;3.67;;;22.30;88.70;;;;;;5005043;28;20040;-77
2022/06/30 11:59:51;;;;;;;8.10;3.42;;;22.30;88.70;;;;;;4990752;28;20022;-76
2022/06/30 12:02:17;;;;;;;8.90;3.50;;;22.30;88.60;;;;;;4990376;28;20087;-77
2022/06/30 12:04:43;;;;;;;8.43;3.55;;;22.30;88.50;;;;;;4990861;28;20378;-77
2022/06/30 12:07:14;;;;;;;8.02;3.53;;;22.30;88.50;;;;;;4997420;28;20030;-77
2022/06/30 12:09:42;;;;;;;8.32;3.25;;;22.30;88.60;;;;;;5026947;28;20041;-78
2022/06/30 12:12:08;;;;;;;8.77;4.30;;;22.20;88.70;;;;;;5028210;28;20029;-77
2022/06/30 12:14:36;;;;;;;6.78;3.75;;;22.20;88.80;;;;;;5010491;28;20029;-76
2022/06/30 12:17:07;;;;;;;9.35;4.00;;;22.10;88.90;;;;;;5023509;28;20018;-77
2022/06/30 12:19:33;;;;;;;10.07;3.72;;;22.10;89.00;;;;;;5008403;28;20029;-77
2022/06/30 12:22:00;;;;;;;8.65;3.75;;;22.10;89.20;;;;;;5007461;28;20034;-76
2022/06/30 12:24:26;;;;;;;9.02;3.85;;;22.00;89.10;;;;;;4990723;28;20037;-78
2022/06/30 12:26:55;;;;;;;9.82;3.85;;;22.10;89.40;;;;;;4990476;28;20031;-77
2022/06/30 12:29:22;;;;;;;7.25;3.58;;;22.00;89.40;;;;;;5008193;28;20026;-75
2022/06/30 12:31:59;;;;;;;8.70;3.55;;;22.00;89.30;;;;;;5007684;28;20036;-77
2022/06/30 12:34:25;;;;;;;7.72;3.38;;;22.00;89.40;;;;;;5006996;28;20026;-76
2022/06/30 12:36:50;;;;;;;8.55;3.40;;;22.00;89.40;;;;;;5021223;28;20039;-77
2022/06/30 12:39:16;;;;;;;9.50;4.07;;;22.00;89.40;;;;;;5021721;28;20021;-77
2022/06/30 12:41:43;;;;;;;9.05;3.88;;;22.00;89.30;;;;;;5006858;28;20097;-78
2022/06/30 12:44:10;;;;;;;7.30;3.67;;;22.00;89.20;;;;;;5000549;28;20037;-77
2022/06/30 12:46:41;;;;;;;9.93;4.10;;;22.00;88.60;;;;;;5028633;28;20811;-78
2022/06/30 12:49:18;;;;;;;7.47;5.13;;;21.90;88.10;;;;;;5013106;28;20030;-78
2022/06/30 12:51:43;;;;;;;7.32;5.20;;;21.90;87.10;;;;;;5013765;28;20116;-78
2022/06/30 12:54:12;;;;;;;9.88;5.60;;;21.80;86.50;;;;;;5016652;28;20463;-76
2022/06/30 12:56:40;;;;;;;8.38;5.32;;;21.80;85.00;;;;;;5010118;28;20484;-77
2022/06/30 12:59:11;;;;;;;7.78;5.57;;;21.70;85.30;;;;;;5018358;28;20032;-76
2022/06/30 13:01:41;;;;;;;7.15;5.20;;;21.70;85.50;;;;;;5028988;28;20035;-77
2022/06/30 13:04:21;;;;;;;7.88;5.53;;;21.80;85.70;;;;;;5046756;28;20511;-77
2022/06/30 13:06:48;;;;;;;7.57;5.47;;;21.80;85.80;;;;;;5046892;28;20035;-78
2022/06/30 13:09:16;;;;;;;74.90;8.10;;;21.70;86.10;;;;;;5029792;28;20037;-76